sensor_id;sensor_type;location;lat;lon;timestamp;P1;durP1;ratioP1;P2;durP2;ratioP2
67352;SDS011;54238;52.278;21.056;2022-07-30T00:01:11;4.10;;;1.70;;
67352;SDS011;54238;52.278;21.056;2022-07-30T00:03:43;2.50;;;1.80;;
67352;SDS011;54238;52.278;21.056;2022-07-30T00:06:10;5.40;;;1.90;;
67352;SDS011;54238;52.278;21.056;2022-07-30T00:08:39;3.60;;;2.00;;
67352;SDS011;54238;52.278;21.056;2022-07-30T00:11:06;4.30;;;1.90;;
67352;SDS011;54238;52.278;21.056;2022-07-30T00:13:43;4.00;;;2.00;;
67352;SDS011;54238;52.278;21.056;2022-07-30T00:16:10;5.30;;;1.90;;
67352;SDS011;54238;52.278;21.056;2022-07-30T00:18:57;3.30;;;1.80;;
67352;SDS011;54238;52.278;21.056;2022-07-30T00:21:26;3.90;;;1.70;;
67352;SDS011;54238;52.278;21.056;2022-07-30T00:23:55;5.50;;;1.60;;
67352;SDS011;54238;52.278;21.056;2022-07-30T00:26:24;3.30;;;1.70;;
67352;SDS011;54238;52.278;21.056;2022-07-30T00:28:51;12.10;;;2.10;;
67352;SDS011;54238;52.278;21.056;2022-07-30T00:31:21;4.20;;;1.50;;
67352;SDS011;54238;52.278;21.056;2022-07-30T00:33:52;5.40;;;1.70;;
67352;SDS011;54238;52.278;21.056;2022-07-30T00:36:19;5.00;;;1.70;;
67352;SDS011;54238;52.278;21.056;2022-07-30T00:38:49;4.80;;;1.90;;
67352;SDS011;54238;52.278;21.056;2022-07-30T00:41:51;3.90;;;1.50;;
67352;SDS011;54238;52.278;21.056;2022-07-30T00:44:43;8.50;;;1.80;;
67352;SDS011;54238;52.278;21.056;2022-07-30T00:47:12;5.00;;;2.00;;
67352;SDS011;54238;52.278;21.056;2022-07-30T00:49:39;2.40;;;1.60;;
67352;SDS011;54238;52.278;21.056;2022-07-30T00:52:12;2.20;;;1.50;;
67352;SDS011;54238;52.278;21.056;2022-07-30T00:54:43;6.00;;;1.90;;
67352;SDS011;54238;52.278;21.056;2022-07-30T00:57:12;6.70;;;3.20;;
67352;SDS011;54238;52.278;21.056;2022-07-30T00:59:39;3.30;;;1.70;;
67352;SDS011;54238;52.278;21.056;2022-07-30T01:02:07;5.10;;;2.40;;
67352;SDS011;54238;52.278;21.056;2022-07-30T01:04:37;5.80;;;2.00;;
67352;SDS011;54238;52.278;21.056;2022-07-30T01:07:04;4.10;;;1.70;;
67352;SDS011;54238;52.278;21.056;2022-07-30T01:09:56;3.50;;;1.60;;
67352;SDS011;54238;52.278;21.056;2022-07-30T01:12:43;10.50;;;2.90;;
67352;SDS011;54238;52.278;21.056;2022-07-30T01:15:50;6.20;;;1.80;;
67352;SDS011;54238;52.278;21.056;2022-07-30T01:18:21;3.60;;;1.90;;
67352;SDS011;54238;52.278;21.056;2022-07-30T01:21:14;1.90;;;1.60;;
67352;SDS011;54238;52.278;21.056;2022-07-30T01:23:49;3.80;;;1.80;;
67352;SDS011;54238;52.278;21.056;2022-07-30T01:26:21;5.00;;;2.00;;
67352;SDS011;54238;52.278;21.056;2022-07-30T01:28:51;2.70;;;1.90;;
67352;SDS011;54238;52.278;21.056;2022-07-30T01:31:26;3.50;;;1.60;;
67352;SDS011;54238;52.278;21.056;2022-07-30T01:33:58;4.20;;;1.70;;
67352;SDS011;54238;52.278;21.056;2022-07-30T01:36:27;4.00;;;1.20;;
67352;SDS011;54238;52.278;21.056;2022-07-30T01:38:59;4.90;;;2.00;;
67352;SDS011;54238;52.278;21.056;2022-07-30T01:41:29;4.40;;;2.00;;
67352;SDS011;54238;52.278;21.056;2022-07-30T01:44:02;4.10;;;1.90;;
67352;SDS011;54238;52.278;21.056;2022-07-30T01:46:36;4.20;;;1.70;;
67352;SDS011;54238;52.278;21.056;2022-07-30T01:49:07;5.20;;;1.90;;
67352;SDS011;54238;52.278;21.056;2022-07-30T01:51:41;6.50;;;2.00;;
67352;SDS011;54238;52.278;21.056;2022-07-30T01:54:11;4.00;;;1.80;;
67352;SDS011;54238;52.278;21.056;2022-07-30T01:56:40;3.60;;;1.50;;
67352;SDS011;54238;52.278;21.056;2022-07-30T01:59:13;3.40;;;1.70;;
67352;SDS011;54238;52.278;21.056;2022-07-30T02:04:10;3.80;;;1.80;;
67352;SDS011;54238;52.278;21.056;2022-07-30T02:06:45;2.70;;;1.40;;
67352;SDS011;54238;52.278;21.056;2022-07-30T02:09:28;5.70;;;1.70;;
67352;SDS011;54238;52.278;21.056;2022-07-30T02:12:05;3.70;;;1.80;;
67352;SDS011;54238;52.278;21.056;2022-07-30T02:18:19;4.30;;;2.10;;
67352;SDS011;54238;52.278;21.056;2022-07-30T02:21:10;2.90;;;1.40;;
67352;SDS011;54238;52.278;21.056;2022-07-30T02:23:40;2.60;;;1.60;;
67352;SDS011;54238;52.278;21.056;2022-07-30T02:26:13;3.70;;;1.70;;
67352;SDS011;54238;52.278;21.056;2022-07-30T02:28:49;4.50;;;1.60;;
67352;SDS011;54238;52.278;21.056;2022-07-30T02:31:20;4.10;;;2.10;;
67352;SDS011;54238;52.278;21.056;2022-07-30T02:33:57;4.30;;;1.60;;
67352;SDS011;54238;52.278;21.056;2022-07-30T02:36:32;5.00;;;1.70;;
67352;SDS011;54238;52.278;21.056;2022-07-30T02:39:01;5.20;;;1.50;;
67352;SDS011;54238;52.278;21.056;2022-07-30T02:41:33;4.40;;;1.90;;
67352;SDS011;54238;52.278;21.056;2022-07-30T02:44:07;3.30;;;1.80;;
67352;SDS011;54238;52.278;21.056;2022-07-30T02:46:38;2.60;;;1.60;;
67352;SDS011;54238;52.278;21.056;2022-07-30T02:49:09;5.30;;;1.90;;
67352;SDS011;54238;52.278;21.056;2022-07-30T02:51:40;4.70;;;2.00;;
67352;SDS011;54238;52.278;21.056;2022-07-30T02:54:09;5.10;;;1.70;;
67352;SDS011;54238;52.278;21.056;2022-07-30T02:56:42;3.20;;;1.70;;
67352;SDS011;54238;52.278;21.056;2022-07-30T02:59:17;2.60;;;1.60;;
67352;SDS011;54238;52.278;21.056;2022-07-30T03:01:53;2.30;;;1.50;;
67352;SDS011;54238;52.278;21.056;2022-07-30T03:04:21;6.90;;;2.00;;
67352;SDS011;54238;52.278;21.056;2022-07-30T03:06:51;3.40;;;1.80;;
67352;SDS011;54238;52.278;21.056;2022-07-30T03:09:20;3.30;;;1.80;;
67352;SDS011;54238;52.278;21.056;2022-07-30T03:11:51;7.30;;;1.90;;
67352;SDS011;54238;52.278;21.056;2022-07-30T03:14:20;2.40;;;2.00;;
67352;SDS011;54238;52.278;21.056;2022-07-30T03:16:52;6.40;;;2.00;;
67352;SDS011;54238;52.278;21.056;2022-07-30T03:21:57;5.10;;;1.60;;
67352;SDS011;54238;52.278;21.056;2022-07-30T03:24:27;4.70;;;1.70;;
67352;SDS011;54238;52.278;21.056;2022-07-30T03:27:39;2.30;;;1.50;;
67352;SDS011;54238;52.278;21.056;2022-07-30T03:30:46;4.50;;;1.70;;
67352;SDS011;54238;52.278;21.056;2022-07-30T03:33:16;6.70;;;2.00;;
67352;SDS011;54238;52.278;21.056;2022-07-30T03:36:06;4.70;;;1.70;;
67352;SDS011;54238;52.278;21.056;2022-07-30T03:39:34;2.70;;;1.70;;
67352;SDS011;54238;52.278;21.056;2022-07-30T03:42:27;2.50;;;1.60;;
67352;SDS011;54238;52.278;21.056;2022-07-30T03:45:05;3.40;;;2.00;;
67352;SDS011;54238;52.278;21.056;2022-07-30T03:47:36;4.50;;;1.50;;
67352;SDS011;54238;52.278;21.056;2022-07-30T03:50:08;5.00;;;1.90;;
67352;SDS011;54238;52.278;21.056;2022-07-30T03:52:37;4.90;;;1.70;;
67352;SDS011;54238;52.278;21.056;2022-07-30T03:55:13;5.40;;;2.10;;
67352;SDS011;54238;52.278;21.056;2022-07-30T03:57:40;8.00;;;4.30;;
67352;SDS011;54238;52.278;21.056;2022-07-30T04:00:31;6.60;;;4.70;;
67352;SDS011;54238;52.278;21.056;2022-07-30T04:02:58;7.40;;;2.80;;
67352;SDS011;54238;52.278;21.056;2022-07-30T04:05:31;4.10;;;2.10;;
67352;SDS011;54238;52.278;21.056;2022-07-30T04:08:03;4.10;;;1.80;;
67352;SDS011;54238;52.278;21.056;2022-07-30T04:10:34;7.00;;;2.10;;
67352;SDS011;54238;52.278;21.056;2022-07-30T04:13:03;5.30;;;2.30;;
67352;SDS011;54238;52.278;21.056;2022-07-30T04:15:55;3.10;;;2.40;;
67352;SDS011;54238;52.278;21.056;2022-07-30T04:19:29;8.40;;;3.20;;
67352;SDS011;54238;52.278;21.056;2022-07-30T04:22:26;4.40;;;1.60;;
67352;SDS011;54238;52.278;21.056;2022-07-30T04:25:36;7.10;;;1.90;;
67352;SDS011;54238;52.278;21.056;2022-07-30T04:28:43;2.70;;;1.60;;
67352;SDS011;54238;52.278;21.056;2022-07-30T04:31:53;3.60;;;2.00;;
67352;SDS011;54238;52.278;21.056;2022-07-30T04:34:23;4.10;;;2.00;;
67352;SDS011;54238;52.278;21.056;2022-07-30T04:36:52;2.30;;;1.70;;
67352;SDS011;54238;52.278;21.056;2022-07-30T04:39:21;2.10;;;1.70;;
67352;SDS011;54238;52.278;21.056;2022-07-30T04:41:53;2.80;;;1.80;;
67352;SDS011;54238;52.278;21.056;2022-07-30T04:44:20;2.60;;;2.10;;
67352;SDS011;54238;52.278;21.056;2022-07-30T04:46:54;2.50;;;2.00;;
67352;SDS011;54238;52.278;21.056;2022-07-30T04:49:21;4.00;;;1.80;;
67352;SDS011;54238;52.278;21.056;2022-07-30T04:54:36;3.70;;;2.50;;
67352;SDS011;54238;52.278;21.056;2022-07-30T04:57:27;3.80;;;1.90;;
67352;SDS011;54238;52.278;21.056;2022-07-30T04:59:59;4.30;;;1.90;;
67352;SDS011;54238;52.278;21.056;2022-07-30T05:02:31;2.60;;;1.90;;
67352;SDS011;54238;52.278;21.056;2022-07-30T05:05:03;4.30;;;2.60;;
67352;SDS011;54238;52.278;21.056;2022-07-30T05:07:36;4.20;;;2.20;;
67352;SDS011;54238;52.278;21.056;2022-07-30T05:10:06;7.80;;;4.60;;
67352;SDS011;54238;52.278;21.056;2022-07-30T05:12:37;9.10;;;2.40;;
67352;SDS011;54238;52.278;21.056;2022-07-30T05:15:08;3.50;;;2.10;;
67352;SDS011;54238;52.278;21.056;2022-07-30T05:17:46;7.60;;;3.40;;
67352;SDS011;54238;52.278;21.056;2022-07-30T05:20:16;3.20;;;1.70;;
67352;SDS011;54238;52.278;21.056;2022-07-30T05:22:53;7.10;;;2.00;;
67352;SDS011;54238;52.278;21.056;2022-07-30T05:25:20;6.60;;;1.90;;
67352;SDS011;54238;52.278;21.056;2022-07-30T05:33:24;4.10;;;1.80;;
67352;SDS011;54238;52.278;21.056;2022-07-30T05:35:58;5.40;;;2.50;;
67352;SDS011;54238;52.278;21.056;2022-07-30T05:38:34;5.60;;;2.40;;
67352;SDS011;54238;52.278;21.056;2022-07-30T05:41:04;7.00;;;2.40;;
67352;SDS011;54238;52.278;21.056;2022-07-30T05:43:34;6.80;;;2.10;;
67352;SDS011;54238;52.278;21.056;2022-07-30T05:46:03;3.00;;;1.90;;
67352;SDS011;54238;52.278;21.056;2022-07-30T05:51:49;4.60;;;2.30;;
67352;SDS011;54238;52.278;21.056;2022-07-30T05:54:38;7.70;;;3.30;;
67352;SDS011;54238;52.278;21.056;2022-07-30T05:57:07;5.10;;;2.10;;
67352;SDS011;54238;52.278;21.056;2022-07-30T05:59:37;5.50;;;2.90;;
67352;SDS011;54238;52.278;21.056;2022-07-30T06:02:04;3.60;;;2.30;;
67352;SDS011;54238;52.278;21.056;2022-07-30T06:04:57;9.50;;;2.60;;
67352;SDS011;54238;52.278;21.056;2022-07-30T06:07:24;6.70;;;1.80;;
67352;SDS011;54238;52.278;21.056;2022-07-30T06:09:51;2.60;;;1.90;;
67352;SDS011;54238;52.278;21.056;2022-07-30T06:12:38;2.40;;;2.20;;
67352;SDS011;54238;52.278;21.056;2022-07-30T06:15:26;4.80;;;1.80;;
67352;SDS011;54238;52.278;21.056;2022-07-30T06:17:53;3.70;;;1.80;;
67352;SDS011;54238;52.278;21.056;2022-07-30T06:20:22;7.20;;;3.20;;
67352;SDS011;54238;52.278;21.056;2022-07-30T06:22:51;7.90;;;2.00;;
67352;SDS011;54238;52.278;21.056;2022-07-30T06:25:21;6.90;;;2.30;;
67352;SDS011;54238;52.278;21.056;2022-07-30T06:27:51;6.60;;;2.00;;
67352;SDS011;54238;52.278;21.056;2022-07-30T06:30:22;6.20;;;1.60;;
67352;SDS011;54238;52.278;21.056;2022-07-30T06:32:49;6.90;;;2.50;;
67352;SDS011;54238;52.278;21.056;2022-07-30T06:35:19;5.90;;;1.90;;
67352;SDS011;54238;52.278;21.056;2022-07-30T06:37:50;5.10;;;2.30;;
67352;SDS011;54238;52.278;21.056;2022-07-30T06:40:22;3.20;;;2.00;;
67352;SDS011;54238;52.278;21.056;2022-07-30T06:45:21;10.70;;;1.90;;
67352;SDS011;54238;52.278;21.056;2022-07-30T06:47:50;3.80;;;2.00;;
67352;SDS011;54238;52.278;21.056;2022-07-30T06:50:17;4.90;;;2.80;;
67352;SDS011;54238;52.278;21.056;2022-07-30T06:52:47;6.80;;;2.60;;
67352;SDS011;54238;52.278;21.056;2022-07-30T06:55:16;6.00;;;2.10;;
67352;SDS011;54238;52.278;21.056;2022-07-30T06:57:50;4.70;;;2.10;;
67352;SDS011;54238;52.278;21.056;2022-07-30T07:00:19;5.40;;;2.20;;
67352;SDS011;54238;52.278;21.056;2022-07-30T07:02:46;2.90;;;2.40;;
67352;SDS011;54238;52.278;21.056;2022-07-30T07:05:17;3.30;;;1.80;;
67352;SDS011;54238;52.278;21.056;2022-07-30T07:07:46;8.20;;;2.20;;
67352;SDS011;54238;52.278;21.056;2022-07-30T07:10:15;4.50;;;2.10;;
67352;SDS011;54238;52.278;21.056;2022-07-30T07:12:42;5.30;;;2.70;;
67352;SDS011;54238;52.278;21.056;2022-07-30T07:15:12;7.30;;;1.60;;
67352;SDS011;54238;52.278;21.056;2022-07-30T07:17:39;4.10;;;2.20;;
67352;SDS011;54238;52.278;21.056;2022-07-30T07:20:11;6.10;;;2.10;;
67352;SDS011;54238;52.278;21.056;2022-07-30T07:22:39;4.30;;;2.00;;
67352;SDS011;54238;52.278;21.056;2022-07-30T07:25:06;6.40;;;1.90;;
67352;SDS011;54238;52.278;21.056;2022-07-30T07:27:35;5.30;;;2.20;;
67352;SDS011;54238;52.278;21.056;2022-07-30T07:30:09;4.90;;;2.40;;
67352;SDS011;54238;52.278;21.056;2022-07-30T07:32:36;6.10;;;2.10;;
67352;SDS011;54238;52.278;21.056;2022-07-30T07:35:06;3.30;;;1.80;;
67352;SDS011;54238;52.278;21.056;2022-07-30T07:37:38;5.40;;;2.20;;
67352;SDS011;54238;52.278;21.056;2022-07-30T07:40:05;3.90;;;2.00;;
67352;SDS011;54238;52.278;21.056;2022-07-30T07:42:33;4.80;;;2.20;;
67352;SDS011;54238;52.278;21.056;2022-07-30T07:45:02;4.10;;;2.00;;
67352;SDS011;54238;52.278;21.056;2022-07-30T07:47:43;4.10;;;1.90;;
67352;SDS011;54238;52.278;21.056;2022-07-30T07:50:19;5.30;;;2.10;;
67352;SDS011;54238;52.278;21.056;2022-07-30T07:52:46;7.20;;;2.90;;
67352;SDS011;54238;52.278;21.056;2022-07-30T07:55:13;8.10;;;4.60;;
67352;SDS011;54238;52.278;21.056;2022-07-30T07:57:45;7.30;;;3.40;;
67352;SDS011;54238;52.278;21.056;2022-07-30T08:00:15;4.70;;;2.30;;
67352;SDS011;54238;52.278;21.056;2022-07-30T08:02:50;4.70;;;3.10;;
67352;SDS011;54238;52.278;21.056;2022-07-30T08:05:17;4.20;;;2.10;;
67352;SDS011;54238;52.278;21.056;2022-07-30T08:07:44;5.90;;;2.30;;
67352;SDS011;54238;52.278;21.056;2022-07-30T08:10:15;7.50;;;2.90;;
67352;SDS011;54238;52.278;21.056;2022-07-30T08:12:45;4.70;;;2.30;;
67352;SDS011;54238;52.278;21.056;2022-07-30T08:15:14;4.80;;;2.70;;
67352;SDS011;54238;52.278;21.056;2022-07-30T08:17:43;7.20;;;3.10;;
67352;SDS011;54238;52.278;21.056;2022-07-30T08:20:14;5.20;;;2.60;;
67352;SDS011;54238;52.278;21.056;2022-07-30T08:22:43;3.80;;;2.10;;
67352;SDS011;54238;52.278;21.056;2022-07-30T08:25:13;3.50;;;1.80;;
67352;SDS011;54238;52.278;21.056;2022-07-30T08:27:45;6.20;;;2.00;;
67352;SDS011;54238;52.278;21.056;2022-07-30T08:30:12;3.10;;;1.90;;
67352;SDS011;54238;52.278;21.056;2022-07-30T08:32:42;5.70;;;2.00;;
67352;SDS011;54238;52.278;21.056;2022-07-30T08:35:08;7.20;;;3.10;;
67352;SDS011;54238;52.278;21.056;2022-07-30T08:37:38;3.60;;;2.20;;
67352;SDS011;54238;52.278;21.056;2022-07-30T08:40:08;3.00;;;2.10;;
67352;SDS011;54238;52.278;21.056;2022-07-30T08:42:41;5.20;;;2.00;;
67352;SDS011;54238;52.278;21.056;2022-07-30T08:45:12;3.50;;;2.10;;
67352;SDS011;54238;52.278;21.056;2022-07-30T08:47:45;3.70;;;2.40;;
67352;SDS011;54238;52.278;21.056;2022-07-30T08:50:17;5.90;;;2.40;;
67352;SDS011;54238;52.278;21.056;2022-07-30T08:52:49;8.80;;;2.30;;
67352;SDS011;54238;52.278;21.056;2022-07-30T08:55:19;4.40;;;2.20;;
67352;SDS011;54238;52.278;21.056;2022-07-30T08:57:47;5.10;;;2.30;;
67352;SDS011;54238;52.278;21.056;2022-07-30T09:00:17;7.10;;;2.50;;
67352;SDS011;54238;52.278;21.056;2022-07-30T09:02:49;4.50;;;2.30;;
67352;SDS011;54238;52.278;21.056;2022-07-30T09:05:27;6.70;;;2.00;;
67352;SDS011;54238;52.278;21.056;2022-07-30T09:07:54;5.00;;;2.10;;
67352;SDS011;54238;52.278;21.056;2022-07-30T09:10:24;3.00;;;1.90;;
67352;SDS011;54238;52.278;21.056;2022-07-30T09:12:51;11.00;;;2.80;;
67352;SDS011;54238;52.278;21.056;2022-07-30T09:15:24;4.10;;;1.70;;
67352;SDS011;54238;52.278;21.056;2022-07-30T09:17:59;5.70;;;2.30;;
67352;SDS011;54238;52.278;21.056;2022-07-30T09:20:32;4.60;;;2.60;;
67352;SDS011;54238;52.278;21.056;2022-07-30T09:23:03;4.50;;;2.20;;
67352;SDS011;54238;52.278;21.056;2022-07-30T09:28:06;4.20;;;2.40;;
67352;SDS011;54238;52.278;21.056;2022-07-30T09:30:46;6.30;;;2.20;;
67352;SDS011;54238;52.278;21.056;2022-07-30T09:33:34;6.60;;;2.50;;
67352;SDS011;54238;52.278;21.056;2022-07-30T09:36:07;6.00;;;2.10;;
67352;SDS011;54238;52.278;21.056;2022-07-30T09:38:53;4.80;;;2.00;;
67352;SDS011;54238;52.278;21.056;2022-07-30T09:41:33;5.90;;;2.00;;
67352;SDS011;54238;52.278;21.056;2022-07-30T09:44:07;6.60;;;2.70;;
67352;SDS011;54238;52.278;21.056;2022-07-30T09:46:44;5.00;;;2.00;;
67352;SDS011;54238;52.278;21.056;2022-07-30T09:49:18;6.50;;;2.20;;
67352;SDS011;54238;52.278;21.056;2022-07-30T09:51:51;3.90;;;1.80;;
67352;SDS011;54238;52.278;21.056;2022-07-30T09:54:24;7.60;;;2.00;;
67352;SDS011;54238;52.278;21.056;2022-07-30T09:57:10;8.10;;;2.00;;
67352;SDS011;54238;52.278;21.056;2022-07-30T09:59:37;5.00;;;2.10;;
67352;SDS011;54238;52.278;21.056;2022-07-30T10:02:06;4.60;;;2.20;;
67352;SDS011;54238;52.278;21.056;2022-07-30T10:04:39;4.80;;;2.00;;
67352;SDS011;54238;52.278;21.056;2022-07-30T10:07:19;4.30;;;1.70;;
67352;SDS011;54238;52.278;21.056;2022-07-30T10:09:47;3.30;;;2.00;;
67352;SDS011;54238;52.278;21.056;2022-07-30T10:12:19;3.50;;;2.10;;
67352;SDS011;54238;52.278;21.056;2022-07-30T10:14:52;5.40;;;3.00;;
67352;SDS011;54238;52.278;21.056;2022-07-30T10:17:21;6.70;;;2.90;;
67352;SDS011;54238;52.278;21.056;2022-07-30T10:19:51;9.00;;;2.30;;
67352;SDS011;54238;52.278;21.056;2022-07-30T10:22:20;4.30;;;2.20;;
67352;SDS011;54238;52.278;21.056;2022-07-30T10:24:52;4.70;;;2.00;;
67352;SDS011;54238;52.278;21.056;2022-07-30T10:27:20;4.40;;;1.80;;
67352;SDS011;54238;52.278;21.056;2022-07-30T10:29:48;3.40;;;2.10;;
67352;SDS011;54238;52.278;21.056;2022-07-30T10:32:16;8.70;;;2.90;;
67352;SDS011;54238;52.278;21.056;2022-07-30T10:34:46;6.10;;;2.10;;
67352;SDS011;54238;52.278;21.056;2022-07-30T10:37:18;4.40;;;2.20;;
67352;SDS011;54238;52.278;21.056;2022-07-30T10:40:18;3.20;;;1.90;;
67352;SDS011;54238;52.278;21.056;2022-07-30T10:48:38;5.60;;;2.60;;
67352;SDS011;54238;52.278;21.056;2022-07-30T10:51:05;4.10;;;2.00;;
67352;SDS011;54238;52.278;21.056;2022-07-30T10:53:44;3.10;;;2.00;;
67352;SDS011;54238;52.278;21.056;2022-07-30T10:56:21;4.50;;;2.10;;
67352;SDS011;54238;52.278;21.056;2022-07-30T10:59:08;7.60;;;3.00;;
67352;SDS011;54238;52.278;21.056;2022-07-30T11:04:22;5.50;;;2.80;;
67352;SDS011;54238;52.278;21.056;2022-07-30T11:09:59;6.20;;;2.10;;
67352;SDS011;54238;52.278;21.056;2022-07-30T11:15:12;7.80;;;3.80;;
67352;SDS011;54238;52.278;21.056;2022-07-30T11:18:02;4.30;;;2.80;;
67352;SDS011;54238;52.278;21.056;2022-07-30T11:20:37;4.50;;;2.70;;
67352;SDS011;54238;52.278;21.056;2022-07-30T11:23:08;6.70;;;4.50;;
67352;SDS011;54238;52.278;21.056;2022-07-30T11:25:39;7.30;;;2.40;;
67352;SDS011;54238;52.278;21.056;2022-07-30T11:28:43;6.80;;;3.80;;
67352;SDS011;54238;52.278;21.056;2022-07-30T11:31:36;4.80;;;2.50;;
67352;SDS011;54238;52.278;21.056;2022-07-30T11:34:24;5.90;;;2.30;;
67352;SDS011;54238;52.278;21.056;2022-07-30T11:37:21;8.20;;;2.70;;
67352;SDS011;54238;52.278;21.056;2022-07-30T11:42:31;6.30;;;2.60;;
67352;SDS011;54238;52.278;21.056;2022-07-30T11:47:47;4.90;;;3.40;;
67352;SDS011;54238;52.278;21.056;2022-07-30T11:50:29;4.90;;;3.00;;
67352;SDS011;54238;52.278;21.056;2022-07-30T11:53:05;5.30;;;2.70;;
67352;SDS011;54238;52.278;21.056;2022-07-30T11:55:49;8.80;;;3.60;;
67352;SDS011;54238;52.278;21.056;2022-07-30T11:58:31;8.20;;;3.50;;
67352;SDS011;54238;52.278;21.056;2022-07-30T12:01:04;10.80;;;3.70;;
67352;SDS011;54238;52.278;21.056;2022-07-30T12:03:39;5.10;;;3.10;;
67352;SDS011;54238;52.278;21.056;2022-07-30T12:06:14;4.70;;;3.10;;
67352;SDS011;54238;52.278;21.056;2022-07-30T12:08:51;6.10;;;3.20;;
67352;SDS011;54238;52.278;21.056;2022-07-30T12:11:22;8.30;;;6.40;;
67352;SDS011;54238;52.278;21.056;2022-07-30T12:13:57;7.90;;;3.90;;
67352;SDS011;54238;52.278;21.056;2022-07-30T12:16:30;4.50;;;3.10;;
67352;SDS011;54238;52.278;21.056;2022-07-30T12:19:03;8.30;;;5.00;;
67352;SDS011;54238;52.278;21.056;2022-07-30T12:21:33;9.20;;;4.50;;
67352;SDS011;54238;52.278;21.056;2022-07-30T12:24:06;23.30;;;10.20;;
67352;SDS011;54238;52.278;21.056;2022-07-30T12:26:34;9.10;;;4.30;;
67352;SDS011;54238;52.278;21.056;2022-07-30T12:29:05;8.00;;;4.70;;
67352;SDS011;54238;52.278;21.056;2022-07-30T12:31:40;9.20;;;5.60;;
67352;SDS011;54238;52.278;21.056;2022-07-30T12:34:21;8.70;;;3.70;;
67352;SDS011;54238;52.278;21.056;2022-07-30T12:36:52;10.00;;;3.50;;
67352;SDS011;54238;52.278;21.056;2022-07-30T12:39:27;11.10;;;3.80;;
67352;SDS011;54238;52.278;21.056;2022-07-30T12:41:59;7.60;;;4.50;;
67352;SDS011;54238;52.278;21.056;2022-07-30T12:47:19;6.70;;;3.80;;
67352;SDS011;54238;52.278;21.056;2022-07-30T12:49:57;10.00;;;3.40;;
67352;SDS011;54238;52.278;21.056;2022-07-30T12:52:33;5.70;;;3.80;;
67352;SDS011;54238;52.278;21.056;2022-07-30T13:00:26;6.50;;;3.30;;
67352;SDS011;54238;52.278;21.056;2022-07-30T13:02:57;8.60;;;3.50;;
67352;SDS011;54238;52.278;21.056;2022-07-30T13:05:47;5.60;;;3.40;;
67352;SDS011;54238;52.278;21.056;2022-07-30T13:08:16;6.70;;;3.70;;
67352;SDS011;54238;52.278;21.056;2022-07-30T13:10:59;4.20;;;2.90;;
67352;SDS011;54238;52.278;21.056;2022-07-30T13:13:29;7.80;;;3.30;;
67352;SDS011;54238;52.278;21.056;2022-07-30T13:16:02;4.80;;;3.60;;
67352;SDS011;54238;52.278;21.056;2022-07-30T13:18:33;9.00;;;3.80;;
67352;SDS011;54238;52.278;21.056;2022-07-30T13:21:04;6.50;;;3.40;;
67352;SDS011;54238;52.278;21.056;2022-07-30T13:23:38;4.40;;;2.80;;
67352;SDS011;54238;52.278;21.056;2022-07-30T13:26:11;3.70;;;2.90;;
67352;SDS011;54238;52.278;21.056;2022-07-30T13:28:43;7.20;;;4.20;;
67352;SDS011;54238;52.278;21.056;2022-07-30T13:31:14;6.70;;;3.40;;
67352;SDS011;54238;52.278;21.056;2022-07-30T13:33:46;5.10;;;3.50;;
67352;SDS011;54238;52.278;21.056;2022-07-30T13:36:16;9.20;;;4.10;;
67352;SDS011;54238;52.278;21.056;2022-07-30T13:38:44;10.80;;;3.80;;
67352;SDS011;54238;52.278;21.056;2022-07-30T13:41:12;7.30;;;3.30;;
67352;SDS011;54238;52.278;21.056;2022-07-30T13:43:41;9.90;;;4.20;;
67352;SDS011;54238;52.278;21.056;2022-07-30T13:46:13;8.60;;;3.70;;
67352;SDS011;54238;52.278;21.056;2022-07-30T13:48:42;8.80;;;3.70;;
67352;SDS011;54238;52.278;21.056;2022-07-30T13:51:10;6.30;;;2.90;;
67352;SDS011;54238;52.278;21.056;2022-07-30T13:53:39;9.70;;;3.60;;
67352;SDS011;54238;52.278;21.056;2022-07-30T13:56:13;7.10;;;3.80;;
67352;SDS011;54238;52.278;21.056;2022-07-30T13:58:40;6.20;;;3.40;;
67352;SDS011;54238;52.278;21.056;2022-07-30T14:01:09;5.50;;;3.80;;
67352;SDS011;54238;52.278;21.056;2022-07-30T14:03:38;5.30;;;3.80;;
67352;SDS011;54238;52.278;21.056;2022-07-30T14:06:08;8.90;;;4.00;;
67352;SDS011;54238;52.278;21.056;2022-07-30T14:08:35;7.30;;;3.90;;
67352;SDS011;54238;52.278;21.056;2022-07-30T14:11:02;6.70;;;3.70;;
67352;SDS011;54238;52.278;21.056;2022-07-30T14:13:29;5.90;;;3.80;;
67352;SDS011;54238;52.278;21.056;2022-07-30T14:15:56;5.20;;;3.70;;
67352;SDS011;54238;52.278;21.056;2022-07-30T14:18:26;5.50;;;4.00;;
67352;SDS011;54238;52.278;21.056;2022-07-30T14:20:53;7.00;;;4.50;;
67352;SDS011;54238;52.278;21.056;2022-07-30T14:23:25;8.60;;;3.90;;
67352;SDS011;54238;52.278;21.056;2022-07-30T14:25:55;6.80;;;4.60;;
67352;SDS011;54238;52.278;21.056;2022-07-30T14:28:21;8.90;;;4.60;;
67352;SDS011;54238;52.278;21.056;2022-07-30T14:30:55;6.60;;;3.90;;
67352;SDS011;54238;52.278;21.056;2022-07-30T14:33:22;6.20;;;3.50;;
67352;SDS011;54238;52.278;21.056;2022-07-30T14:35:52;8.80;;;3.90;;
67352;SDS011;54238;52.278;21.056;2022-07-30T14:38:19;6.60;;;3.50;;
67352;SDS011;54238;52.278;21.056;2022-07-30T14:40:48;5.40;;;3.70;;
67352;SDS011;54238;52.278;21.056;2022-07-30T14:43:15;6.80;;;3.40;;
67352;SDS011;54238;52.278;21.056;2022-07-30T14:45:43;9.10;;;4.00;;
67352;SDS011;54238;52.278;21.056;2022-07-30T14:48:18;5.70;;;4.00;;
67352;SDS011;54238;52.278;21.056;2022-07-30T14:50:47;4.60;;;3.10;;
67352;SDS011;54238;52.278;21.056;2022-07-30T14:53:15;4.10;;;3.30;;
67352;SDS011;54238;52.278;21.056;2022-07-30T14:55:44;9.20;;;3.80;;
67352;SDS011;54238;52.278;21.056;2022-07-30T14:58:11;7.90;;;4.40;;
67352;SDS011;54238;52.278;21.056;2022-07-30T15:03:43;7.60;;;3.70;;
67352;SDS011;54238;52.278;21.056;2022-07-30T15:06:11;5.70;;;4.00;;
67352;SDS011;54238;52.278;21.056;2022-07-30T15:08:40;8.70;;;4.40;;
67352;SDS011;54238;52.278;21.056;2022-07-30T15:11:12;6.80;;;4.00;;
67352;SDS011;54238;52.278;21.056;2022-07-30T15:13:43;7.40;;;3.80;;
67352;SDS011;54238;52.278;21.056;2022-07-30T15:18:42;5.60;;;3.60;;
67352;SDS011;54238;52.278;21.056;2022-07-30T15:21:12;6.10;;;3.70;;
67352;SDS011;54238;52.278;21.056;2022-07-30T15:23:42;9.80;;;3.80;;
67352;SDS011;54238;52.278;21.056;2022-07-30T15:26:09;10.60;;;3.90;;
67352;SDS011;54238;52.278;21.056;2022-07-30T15:28:36;4.30;;;3.10;;
67352;SDS011;54238;52.278;21.056;2022-07-30T15:31:08;4.40;;;3.10;;
67352;SDS011;54238;52.278;21.056;2022-07-30T15:33:40;5.30;;;3.60;;
67352;SDS011;54238;52.278;21.056;2022-07-30T15:36:09;4.90;;;3.70;;
67352;SDS011;54238;52.278;21.056;2022-07-30T15:38:37;6.70;;;3.70;;
67352;SDS011;54238;52.278;21.056;2022-07-30T15:41:09;8.00;;;3.40;;
67352;SDS011;54238;52.278;21.056;2022-07-30T15:43:36;9.00;;;3.90;;
67352;SDS011;54238;52.278;21.056;2022-07-30T15:49:05;9.60;;;3.40;;
67352;SDS011;54238;52.278;21.056;2022-07-30T15:51:38;4.40;;;3.40;;
67352;SDS011;54238;52.278;21.056;2022-07-30T15:54:16;9.80;;;3.40;;
67352;SDS011;54238;52.278;21.056;2022-07-30T15:56:47;7.10;;;3.20;;
67352;SDS011;54238;52.278;21.056;2022-07-30T15:59:17;7.50;;;3.10;;
67352;SDS011;54238;52.278;21.056;2022-07-30T16:01:47;4.20;;;3.40;;
67352;SDS011;54238;52.278;21.056;2022-07-30T16:04:15;5.40;;;2.90;;
67352;SDS011;54238;52.278;21.056;2022-07-30T16:09:41;7.60;;;3.20;;
67352;SDS011;54238;52.278;21.056;2022-07-30T16:12:11;5.50;;;2.70;;
67352;SDS011;54238;52.278;21.056;2022-07-30T16:14:41;4.20;;;2.90;;